sensor_id;sensor_type;location;lat;lon;timestamp;P1;durP1;ratioP1;P2;durP2;ratioP2
57663;SDS011;43493;53.098;6.064;2024-02-04T00:00:29;13.03;;;3.20;;
57663;SDS011;43493;53.098;6.064;2024-02-04T00:02:54;14.93;;;2.60;;
57663;SDS011;43493;53.098;6.064;2024-02-04T00:05:20;11.57;;;2.67;;
57663;SDS011;43493;53.098;6.064;2024-02-04T00:07:46;12.77;;;2.83;;
57663;SDS011;43493;53.098;6.064;2024-02-04T00:10:12;16.07;;;3.43;;
57663;SDS011;43493;53.098;6.064;2024-02-04T00:12:40;16.83;;;2.67;;
57663;SDS011;43493;53.098;6.064;2024-02-04T00:15:06;11.17;;;2.70;;
57663;SDS011;43493;53.098;6.064;2024-02-04T00:17:33;12.40;;;2.53;;
57663;SDS011;43493;53.098;6.064;2024-02-04T00:19:59;15.17;;;2.87;;
57663;SDS011;43493;53.098;6.064;2024-02-04T00:22:27;11.17;;;3.00;;
57663;SDS011;43493;53.098;6.064;2024-02-04T00:24:53;13.77;;;2.33;;
57663;SDS011;43493;53.098;6.064;2024-02-04T00:27:19;14.27;;;2.70;;
57663;SDS011;43493;53.098;6.064;2024-02-04T00:29:44;15.43;;;2.47;;
57663;SDS011;43493;53.098;6.064;2024-02-04T00:32:10;17.97;;;3.07;;
57663;SDS011;43493;53.098;6.064;2024-02-04T00:34:36;17.60;;;3.30;;
57663;SDS011;43493;53.098;6.064;2024-02-04T00:37:01;13.50;;;3.40;;
57663;SDS011;43493;53.098;6.064;2024-02-04T00:39:27;13.80;;;2.73;;
57663;SDS011;43493;53.098;6.064;2024-02-04T00:41:53;13.37;;;2.57;;
57663;SDS011;43493;53.098;6.064;2024-02-04T00:44:19;10.63;;;2.63;;
57663;SDS011;43493;53.098;6.064;2024-02-04T00:46:45;11.27;;;2.90;;
57663;SDS011;43493;53.098;6.064;2024-02-04T00:49:10;15.50;;;2.97;;
57663;SDS011;43493;53.098;6.064;2024-02-04T00:51:36;14.37;;;2.73;;
57663;SDS011;43493;53.098;6.064;2024-02-04T00:54:02;9.87;;;2.77;;
57663;SDS011;43493;53.098;6.064;2024-02-04T00:56:27;14.97;;;3.13;;
57663;SDS011;43493;53.098;6.064;2024-02-04T00:58:53;11.27;;;2.40;;
57663;SDS011;43493;53.098;6.064;2024-02-04T01:01:19;14.33;;;2.77;;
57663;SDS011;43493;53.098;6.064;2024-02-04T01:03:45;19.77;;;4.17;;
57663;SDS011;43493;53.098;6.064;2024-02-04T01:06:11;14.10;;;2.77;;
57663;SDS011;43493;53.098;6.064;2024-02-04T01:08:36;14.33;;;2.90;;
57663;SDS011;43493;53.098;6.064;2024-02-04T01:11:03;15.63;;;2.87;;
57663;SDS011;43493;53.098;6.064;2024-02-04T01:13:30;14.83;;;3.57;;
57663;SDS011;43493;53.098;6.064;2024-02-04T01:15:57;14.10;;;3.10;;
57663;SDS011;43493;53.098;6.064;2024-02-04T01:18:23;11.07;;;2.40;;
57663;SDS011;43493;53.098;6.064;2024-02-04T01:20:48;17.30;;;2.73;;
57663;SDS011;43493;53.098;6.064;2024-02-04T01:23:14;15.53;;;2.77;;
57663;SDS011;43493;53.098;6.064;2024-02-04T01:25:42;16.53;;;3.30;;
57663;SDS011;43493;53.098;6.064;2024-02-04T01:28:08;17.40;;;3.50;;
57663;SDS011;43493;53.098;6.064;2024-02-04T01:30:34;12.03;;;2.73;;
57663;SDS011;43493;53.098;6.064;2024-02-04T01:33:00;14.67;;;2.90;;
57663;SDS011;43493;53.098;6.064;2024-02-04T01:35:26;16.23;;;2.60;;
57663;SDS011;43493;53.098;6.064;2024-02-04T01:37:51;16.30;;;2.63;;
57663;SDS011;43493;53.098;6.064;2024-02-04T01:40:17;15.47;;;2.83;;
57663;SDS011;43493;53.098;6.064;2024-02-04T01:42:43;17.03;;;3.17;;
57663;SDS011;43493;53.098;6.064;2024-02-04T01:45:09;10.23;;;2.70;;
57663;SDS011;43493;53.098;6.064;2024-02-04T01:47:34;18.23;;;3.07;;
57663;SDS011;43493;53.098;6.064;2024-02-04T01:50:00;14.63;;;3.40;;
57663;SDS011;43493;53.098;6.064;2024-02-04T01:52:28;16.73;;;3.10;;
57663;SDS011;43493;53.098;6.064;2024-02-04T01:54:55;16.37;;;3.23;;
57663;SDS011;43493;53.098;6.064;2024-02-04T01:57:21;15.87;;;2.80;;
57663;SDS011;43493;53.098;6.064;2024-02-04T01:59:48;16.33;;;3.47;;
57663;SDS011;43493;53.098;6.064;2024-02-04T02:02:17;16.33;;;3.00;;
57663;SDS011;43493;53.098;6.064;2024-02-04T02:04:43;15.67;;;2.63;;
57663;SDS011;43493;53.098;6.064;2024-02-04T02:07:10;14.70;;;2.53;;
57663;SDS011;43493;53.098;6.064;2024-02-04T02:09:35;18.33;;;4.13;;
57663;SDS011;43493;53.098;6.064;2024-02-04T02:12:02;17.37;;;2.93;;
57663;SDS011;43493;53.098;6.064;2024-02-04T02:14:30;16.43;;;2.87;;
57663;SDS011;43493;53.098;6.064;2024-02-04T02:17:00;20.27;;;2.70;;
57663;SDS011;43493;53.098;6.064;2024-02-04T02:19:44;16.47;;;3.60;;
57663;SDS011;43493;53.098;6.064;2024-02-04T02:22:38;15.23;;;3.97;;
57663;SDS011;43493;53.098;6.064;2024-02-04T02:25:13;17.53;;;3.10;;
57663;SDS011;43493;53.098;6.064;2024-02-04T02:27:51;13.17;;;2.90;;
57663;SDS011;43493;53.098;6.064;2024-02-04T02:30:17;17.13;;;4.13;;
57663;SDS011;43493;53.098;6.064;2024-02-04T02:32:46;14.33;;;3.60;;
57663;SDS011;43493;53.098;6.064;2024-02-04T02:35:14;17.67;;;3.17;;
57663;SDS011;43493;53.098;6.064;2024-02-04T02:37:43;17.97;;;3.77;;
57663;SDS011;43493;53.098;6.064;2024-02-04T02:40:18;18.25;;;3.17;;
57663;SDS011;43493;53.098;6.064;2024-02-04T02:42:50;22.13;;;4.07;;
57663;SDS011;43493;53.098;6.064;2024-02-04T02:45:18;16.93;;;3.40;;
57663;SDS011;43493;53.098;6.064;2024-02-04T02:47:46;20.60;;;3.33;;
57663;SDS011;43493;53.098;6.064;2024-02-04T02:50:13;15.70;;;3.30;;
57663;SDS011;43493;53.098;6.064;2024-02-04T02:52:39;18.50;;;3.93;;
57663;SDS011;43493;53.098;6.064;2024-02-04T02:55:04;16.80;;;2.93;;
57663;SDS011;43493;53.098;6.064;2024-02-04T02:57:30;16.93;;;3.53;;
57663;SDS011;43493;53.098;6.064;2024-02-04T02:59:56;23.10;;;3.67;;
57663;SDS011;43493;53.098;6.064;2024-02-04T03:02:22;14.50;;;3.37;;
57663;SDS011;43493;53.098;6.064;2024-02-04T03:04:48;16.50;;;3.10;;
57663;SDS011;43493;53.098;6.064;2024-02-04T03:07:13;20.33;;;2.90;;
57663;SDS011;43493;53.098;6.064;2024-02-04T03:09:39;18.10;;;3.03;;
57663;SDS011;43493;53.098;6.064;2024-02-04T03:12:05;14.70;;;2.80;;
57663;SDS011;43493;53.098;6.064;2024-02-04T03:14:31;18.87;;;3.40;;
57663;SDS011;43493;53.098;6.064;2024-02-04T03:16:57;19.67;;;3.10;;
57663;SDS011;43493;53.098;6.064;2024-02-04T03:19:22;17.57;;;3.50;;
57663;SDS011;43493;53.098;6.064;2024-02-04T03:21:48;18.57;;;3.60;;
57663;SDS011;43493;53.098;6.064;2024-02-04T03:24:13;17.83;;;3.47;;
57663;SDS011;43493;53.098;6.064;2024-02-04T03:26:39;13.80;;;2.80;;
57663;SDS011;43493;53.098;6.064;2024-02-04T03:29:05;19.00;;;4.07;;
57663;SDS011;43493;53.098;6.064;2024-02-04T03:31:31;19.53;;;3.33;;
57663;SDS011;43493;53.098;6.064;2024-02-04T03:33:57;18.83;;;2.83;;
57663;SDS011;43493;53.098;6.064;2024-02-04T03:36:23;21.53;;;3.47;;
57663;SDS011;43493;53.098;6.064;2024-02-04T03:38:50;21.73;;;4.57;;
57663;SDS011;43493;53.098;6.064;2024-02-04T03:41:16;18.57;;;3.70;;
57663;SDS011;43493;53.098;6.064;2024-02-04T03:43:42;32.23;;;4.07;;
57663;SDS011;43493;53.098;6.064;2024-02-04T03:46:08;23.60;;;3.67;;
57663;SDS011;43493;53.098;6.064;2024-02-04T03:48:33;21.43;;;3.37;;
57663;SDS011;43493;53.098;6.064;2024-02-04T03:51:00;19.13;;;4.03;;
57663;SDS011;43493;53.098;6.064;2024-02-04T03:53:26;18.50;;;3.07;;
57663;SDS011;43493;53.098;6.064;2024-02-04T03:55:52;20.90;;;4.20;;
57663;SDS011;43493;53.098;6.064;2024-02-04T03:58:19;23.87;;;3.33;;
57663;SDS011;43493;53.098;6.064;2024-02-04T04:00:45;18.93;;;3.50;;
57663;SDS011;43493;53.098;6.064;2024-02-04T04:03:11;22.00;;;3.93;;
57663;SDS011;43493;53.098;6.064;2024-02-04T04:05:37;21.03;;;4.47;;
57663;SDS011;43493;53.098;6.064;2024-02-04T04:08:02;26.40;;;4.47;;
57663;SDS011;43493;53.098;6.064;2024-02-04T04:10:28;21.00;;;3.40;;
57663;SDS011;43493;53.098;6.064;2024-02-04T04:12:54;22.60;;;3.50;;
57663;SDS011;43493;53.098;6.064;2024-02-04T04:15:19;19.17;;;2.83;;
57663;SDS011;43493;53.098;6.064;2024-02-04T04:17:45;23.77;;;3.77;;
57663;SDS011;43493;53.098;6.064;2024-02-04T04:20:11;21.80;;;3.40;;
57663;SDS011;43493;53.098;6.064;2024-02-04T04:22:40;23.17;;;3.47;;
57663;SDS011;43493;53.098;6.064;2024-02-04T04:25:06;22.23;;;3.53;;
57663;SDS011;43493;53.098;6.064;2024-02-04T04:27:32;18.23;;;3.80;;
57663;SDS011;43493;53.098;6.064;2024-02-04T04:29:58;20.57;;;3.67;;
57663;SDS011;43493;53.098;6.064;2024-02-04T04:32:23;25.07;;;3.53;;
57663;SDS011;43493;53.098;6.064;2024-02-04T04:34:49;21.10;;;4.47;;
57663;SDS011;43493;53.098;6.064;2024-02-04T04:37:15;26.63;;;3.33;;
57663;SDS011;43493;53.098;6.064;2024-02-04T04:39:41;21.73;;;4.47;;
57663;SDS011;43493;53.098;6.064;2024-02-04T04:42:06;20.07;;;3.37;;
57663;SDS011;43493;53.098;6.064;2024-02-04T04:44:32;21.73;;;3.23;;
57663;SDS011;43493;53.098;6.064;2024-02-04T04:46:58;19.33;;;3.47;;
57663;SDS011;43493;53.098;6.064;2024-02-04T04:49:23;25.40;;;4.43;;
57663;SDS011;43493;53.098;6.064;2024-02-04T04:51:49;23.10;;;3.03;;
57663;SDS011;43493;53.098;6.064;2024-02-04T04:54:15;15.93;;;4.17;;
57663;SDS011;43493;53.098;6.064;2024-02-04T04:56:40;22.23;;;3.40;;
57663;SDS011;43493;53.098;6.064;2024-02-04T04:59:07;24.90;;;4.30;;
57663;SDS011;43493;53.098;6.064;2024-02-04T05:01:33;17.10;;;3.10;;
57663;SDS011;43493;53.098;6.064;2024-02-04T05:03:59;22.67;;;3.87;;
57663;SDS011;43493;53.098;6.064;2024-02-04T05:06:25;20.60;;;3.20;;
57663;SDS011;43493;53.098;6.064;2024-02-04T05:08:51;20.93;;;4.17;;
57663;SDS011;43493;53.098;6.064;2024-02-04T05:11:17;21.63;;;3.30;;
57663;SDS011;43493;53.098;6.064;2024-02-04T05:13:43;24.37;;;3.27;;
57663;SDS011;43493;53.098;6.064;2024-02-04T05:16:08;23.87;;;3.70;;
57663;SDS011;43493;53.098;6.064;2024-02-04T05:18:34;19.40;;;3.40;;
57663;SDS011;43493;53.098;6.064;2024-02-04T05:21:03;19.03;;;3.20;;
57663;SDS011;43493;53.098;6.064;2024-02-04T05:23:29;18.73;;;3.20;;
57663;SDS011;43493;53.098;6.064;2024-02-04T05:25:55;21.37;;;3.60;;
57663;SDS011;43493;53.098;6.064;2024-02-04T05:28:20;20.67;;;4.33;;
57663;SDS011;43493;53.098;6.064;2024-02-04T05:30:46;17.13;;;3.23;;
57663;SDS011;43493;53.098;6.064;2024-02-04T05:33:15;18.13;;;3.30;;
57663;SDS011;43493;53.098;6.064;2024-02-04T05:35:43;14.50;;;3.60;;
57663;SDS011;43493;53.098;6.064;2024-02-04T05:38:09;21.73;;;3.40;;
57663;SDS011;43493;53.098;6.064;2024-02-04T05:40:35;19.73;;;3.30;;
57663;SDS011;43493;53.098;6.064;2024-02-04T05:43:01;16.57;;;3.80;;
57663;SDS011;43493;53.098;6.064;2024-02-04T05:45:31;14.73;;;3.33;;
57663;SDS011;43493;53.098;6.064;2024-02-04T05:47:57;18.07;;;3.50;;
57663;SDS011;43493;53.098;6.064;2024-02-04T05:50:23;22.20;;;3.50;;
57663;SDS011;43493;53.098;6.064;2024-02-04T05:52:49;21.23;;;4.20;;
57663;SDS011;43493;53.098;6.064;2024-02-04T05:55:14;20.20;;;3.77;;
57663;SDS011;43493;53.098;6.064;2024-02-04T05:57:40;27.90;;;3.77;;
57663;SDS011;43493;53.098;6.064;2024-02-04T06:00:06;20.33;;;3.77;;
57663;SDS011;43493;53.098;6.064;2024-02-04T06:02:34;23.27;;;3.90;;
57663;SDS011;43493;53.098;6.064;2024-02-04T06:04:59;23.20;;;4.60;;
57663;SDS011;43493;53.098;6.064;2024-02-04T06:07:26;14.17;;;3.10;;
57663;SDS011;43493;53.098;6.064;2024-02-04T06:09:51;17.80;;;3.60;;
57663;SDS011;43493;53.098;6.064;2024-02-04T06:12:17;23.20;;;3.53;;
57663;SDS011;43493;53.098;6.064;2024-02-04T06:14:43;24.00;;;3.90;;
57663;SDS011;43493;53.098;6.064;2024-02-04T06:17:08;20.73;;;3.70;;
57663;SDS011;43493;53.098;6.064;2024-02-04T06:19:35;18.20;;;3.50;;
57663;SDS011;43493;53.098;6.064;2024-02-04T06:22:01;21.43;;;3.87;;
57663;SDS011;43493;53.098;6.064;2024-02-04T06:24:26;18.23;;;3.70;;
57663;SDS011;43493;53.098;6.064;2024-02-04T06:26:52;15.70;;;3.37;;
57663;SDS011;43493;53.098;6.064;2024-02-04T06:29:18;23.93;;;4.17;;
57663;SDS011;43493;53.098;6.064;2024-02-04T06:31:44;16.57;;;3.30;;
57663;SDS011;43493;53.098;6.064;2024-02-04T06:34:10;17.73;;;4.07;;
57663;SDS011;43493;53.098;6.064;2024-02-04T06:36:36;23.20;;;4.37;;
57663;SDS011;43493;53.098;6.064;2024-02-04T06:39:02;20.33;;;3.80;;
57663;SDS011;43493;53.098;6.064;2024-02-04T06:41:27;23.90;;;3.90;;
57663;SDS011;43493;53.098;6.064;2024-02-04T06:43:53;24.00;;;4.33;;
57663;SDS011;43493;53.098;6.064;2024-02-04T06:46:28;23.00;;;4.77;;
57663;SDS011;43493;53.098;6.064;2024-02-04T06:48:54;26.40;;;4.22;;
57663;SDS011;43493;53.098;6.064;2024-02-04T06:51:20;20.50;;;3.67;;
57663;SDS011;43493;53.098;6.064;2024-02-04T06:53:46;21.53;;;3.00;;
57663;SDS011;43493;53.098;6.064;2024-02-04T06:56:11;16.77;;;3.47;;
57663;SDS011;43493;53.098;6.064;2024-02-04T06:58:37;19.23;;;3.83;;
57663;SDS011;43493;53.098;6.064;2024-02-04T07:01:04;21.13;;;4.57;;
57663;SDS011;43493;53.098;6.064;2024-02-04T07:03:30;19.90;;;4.33;;
57663;SDS011;43493;53.098;6.064;2024-02-04T07:05:56;28.13;;;4.27;;
57663;SDS011;43493;53.098;6.064;2024-02-04T07:08:22;22.30;;;4.03;;
57663;SDS011;43493;53.098;6.064;2024-02-04T07:10:48;27.57;;;3.90;;
57663;SDS011;43493;53.098;6.064;2024-02-04T07:13:14;23.57;;;4.40;;
57663;SDS011;43493;53.098;6.064;2024-02-04T07:15:40;18.27;;;3.50;;
57663;SDS011;43493;53.098;6.064;2024-02-04T07:18:06;20.30;;;3.83;;
57663;SDS011;43493;53.098;6.064;2024-02-04T07:20:32;21.80;;;4.03;;
57663;SDS011;43493;53.098;6.064;2024-02-04T07:22:57;11.30;;;3.00;;
57663;SDS011;43493;53.098;6.064;2024-02-04T07:25:23;20.77;;;3.70;;
57663;SDS011;43493;53.098;6.064;2024-02-04T07:27:49;17.47;;;3.67;;
57663;SDS011;43493;53.098;6.064;2024-02-04T07:30:14;18.83;;;3.90;;
57663;SDS011;43493;53.098;6.064;2024-02-04T07:32:40;16.93;;;3.03;;
57663;SDS011;43493;53.098;6.064;2024-02-04T07:35:06;20.03;;;3.17;;
57663;SDS011;43493;53.098;6.064;2024-02-04T07:37:34;17.47;;;3.10;;
57663;SDS011;43493;53.098;6.064;2024-02-04T07:40:00;19.60;;;3.73;;
57663;SDS011;43493;53.098;6.064;2024-02-04T07:42:26;19.60;;;3.47;;
57663;SDS011;43493;53.098;6.064;2024-02-04T07:44:53;17.60;;;3.90;;
57663;SDS011;43493;53.098;6.064;2024-02-04T07:47:18;13.83;;;2.93;;
57663;SDS011;43493;53.098;6.064;2024-02-04T07:49:47;15.80;;;3.60;;
57663;SDS011;43493;53.098;6.064;2024-02-04T07:52:13;18.83;;;4.20;;
57663;SDS011;43493;53.098;6.064;2024-02-04T07:54:39;19.90;;;3.03;;
57663;SDS011;43493;53.098;6.064;2024-02-04T07:57:05;24.77;;;4.20;;
57663;SDS011;43493;53.098;6.064;2024-02-04T07:59:31;15.70;;;3.17;;
57663;SDS011;43493;53.098;6.064;2024-02-04T08:01:56;17.80;;;4.03;;
57663;SDS011;43493;53.098;6.064;2024-02-04T08:04:22;18.70;;;3.50;;
57663;SDS011;43493;53.098;6.064;2024-02-04T08:06:48;13.17;;;3.23;;
57663;SDS011;43493;53.098;6.064;2024-02-04T08:09:14;14.23;;;3.50;;
57663;SDS011;43493;53.098;6.064;2024-02-04T08:11:39;17.70;;;4.10;;
57663;SDS011;43493;53.098;6.064;2024-02-04T08:14:05;19.23;;;4.17;;
57663;SDS011;43493;53.098;6.064;2024-02-04T08:16:31;23.47;;;4.43;;
57663;SDS011;43493;53.098;6.064;2024-02-04T08:18:57;21.57;;;3.67;;
57663;SDS011;43493;53.098;6.064;2024-02-04T08:21:23;18.37;;;3.73;;
57663;SDS011;43493;53.098;6.064;2024-02-04T08:23:49;19.97;;;3.60;;
57663;SDS011;43493;53.098;6.064;2024-02-04T08:26:15;19.10;;;3.87;;
57663;SDS011;43493;53.098;6.064;2024-02-04T08:28:41;15.83;;;3.87;;
57663;SDS011;43493;53.098;6.064;2024-02-04T08:31:06;14.00;;;3.20;;
57663;SDS011;43493;53.098;6.064;2024-02-04T08:33:32;16.90;;;4.20;;
57663;SDS011;43493;53.098;6.064;2024-02-04T08:35:58;17.97;;;4.23;;
57663;SDS011;43493;53.098;6.064;2024-02-04T08:38:24;13.63;;;3.10;;
57663;SDS011;43493;53.098;6.064;2024-02-04T08:40:50;16.60;;;3.13;;
57663;SDS011;43493;53.098;6.064;2024-02-04T08:43:16;17.93;;;3.87;;
57663;SDS011;43493;53.098;6.064;2024-02-04T08:45:41;16.77;;;3.37;;
57663;SDS011;43493;53.098;6.064;2024-02-04T08:48:07;18.60;;;4.03;;
57663;SDS011;43493;53.098;6.064;2024-02-04T08:50:33;19.83;;;3.90;;
57663;SDS011;43493;53.098;6.064;2024-02-04T08:52:58;13.03;;;2.67;;
57663;SDS011;43493;53.098;6.064;2024-02-04T08:55:24;14.93;;;3.53;;
57663;SDS011;43493;53.098;6.064;2024-02-04T08:57:50;15.23;;;3.17;;
57663;SDS011;43493;53.098;6.064;2024-02-04T09:00:18;14.57;;;3.40;;
57663;SDS011;43493;53.098;6.064;2024-02-04T09:02:44;16.30;;;3.10;;
57663;SDS011;43493;53.098;6.064;2024-02-04T09:05:11;20.00;;;4.43;;
57663;SDS011;43493;53.098;6.064;2024-02-04T09:07:37;18.80;;;3.87;;
57663;SDS011;43493;53.098;6.064;2024-02-04T09:10:04;12.50;;;2.90;;
57663;SDS011;43493;53.098;6.064;2024-02-04T09:12:30;17.50;;;3.30;;
57663;SDS011;43493;53.098;6.064;2024-02-04T09:14:56;15.67;;;4.40;;
57663;SDS011;43493;53.098;6.064;2024-02-04T09:17:21;16.43;;;4.23;;
57663;SDS011;43493;53.098;6.064;2024-02-04T09:19:47;14.77;;;3.90;;
57663;SDS011;43493;53.098;6.064;2024-02-04T09:22:13;14.73;;;2.87;;
57663;SDS011;43493;53.098;6.064;2024-02-04T09:24:38;18.97;;;4.63;;
57663;SDS011;43493;53.098;6.064;2024-02-04T09:27:04;12.00;;;3.20;;
57663;SDS011;43493;53.098;6.064;2024-02-04T09:29:30;23.10;;;3.90;;
57663;SDS011;43493;53.098;6.064;2024-02-04T09:31:55;17.93;;;3.80;;
57663;SDS011;43493;53.098;6.064;2024-02-04T09:34:21;18.43;;;4.03;;
57663;SDS011;43493;53.098;6.064;2024-02-04T09:36:47;16.47;;;3.43;;
57663;SDS011;43493;53.098;6.064;2024-02-04T09:39:13;15.00;;;3.17;;
57663;SDS011;43493;53.098;6.064;2024-02-04T09:41:38;14.17;;;3.07;;
57663;SDS011;43493;53.098;6.064;2024-02-04T09:44:04;11.83;;;2.80;;
57663;SDS011;43493;53.098;6.064;2024-02-04T09:46:31;15.13;;;3.43;;
57663;SDS011;43493;53.098;6.064;2024-02-04T09:48:57;15.70;;;3.80;;
57663;SDS011;43493;53.098;6.064;2024-02-04T09:51:25;14.37;;;2.60;;
57663;SDS011;43493;53.098;6.064;2024-02-04T09:53:52;15.23;;;3.30;;
57663;SDS011;43493;53.098;6.064;2024-02-04T09:56:18;15.27;;;3.47;;
57663;SDS011;43493;53.098;6.064;2024-02-04T09:58:47;13.67;;;2.97;;
57663;SDS011;43493;53.098;6.064;2024-02-04T10:01:13;12.77;;;2.87;;
57663;SDS011;43493;53.098;6.064;2024-02-04T10:03:41;14.37;;;2.57;;
57663;SDS011;43493;53.098;6.064;2024-02-04T10:06:06;15.77;;;3.03;;
57663;SDS011;43493;53.098;6.064;2024-02-04T10:08:33;14.13;;;2.73;;
57663;SDS011;43493;53.098;6.064;2024-02-04T10:11:01;16.20;;;3.13;;
57663;SDS011;43493;53.098;6.064;2024-02-04T10:13:27;16.10;;;3.00;;
57663;SDS011;43493;53.098;6.064;2024-02-04T10:15:52;13.20;;;2.73;;
57663;SDS011;43493;53.098;6.064;2024-02-04T10:18:18;14.73;;;2.47;;
57663;SDS011;43493;53.098;6.064;2024-02-04T10:20:44;18.53;;;2.70;;
57663;SDS011;43493;53.098;6.064;2024-02-04T10:23:09;11.30;;;2.87;;
57663;SDS011;43493;53.098;6.064;2024-02-04T10:25:35;14.97;;;3.50;;
57663;SDS011;43493;53.098;6.064;2024-02-04T10:28:01;18.90;;;3.33;;
57663;SDS011;43493;53.098;6.064;2024-02-04T10:30:27;15.23;;;2.50;;
57663;SDS011;43493;53.098;6.064;2024-02-04T10:32:53;17.50;;;2.93;;
57663;SDS011;43493;53.098;6.064;2024-02-04T10:35:22;13.70;;;2.57;;
57663;SDS011;43493;53.098;6.064;2024-02-04T10:37:49;14.40;;;2.17;;
57663;SDS011;43493;53.098;6.064;2024-02-04T10:40:16;12.27;;;3.00;;
57663;SDS011;43493;53.098;6.064;2024-02-04T10:42:42;9.47;;;2.10;;
57663;SDS011;43493;53.098;6.064;2024-02-04T10:45:09;12.13;;;3.30;;
57663;SDS011;43493;53.098;6.064;2024-02-04T10:47:39;12.63;;;3.27;;
57663;SDS011;43493;53.098;6.064;2024-02-04T10:50:06;14.67;;;3.07;;
57663;SDS011;43493;53.098;6.064;2024-02-04T10:52:39;15.37;;;3.83;;
57663;SDS011;43493;53.098;6.064;2024-02-04T10:55:09;14.37;;;4.10;;
57663;SDS011;43493;53.098;6.064;2024-02-04T10:57:39;13.97;;;2.57;;
57663;SDS011;43493;53.098;6.064;2024-02-04T11:00:05;10.40;;;2.70;;
57663;SDS011;43493;53.098;6.064;2024-02-04T11:02:36;11.30;;;2.53;;
57663;SDS011;43493;53.098;6.064;2024-02-04T11:05:03;15.00;;;2.83;;
57663;SDS011;43493;53.098;6.064;2024-02-04T11:07:31;9.60;;;2.97;;
57663;SDS011;43493;53.098;6.064;2024-02-04T11:09:58;14.20;;;2.87;;
57663;SDS011;43493;53.098;6.064;2024-02-04T11:12:24;14.27;;;3.10;;
57663;SDS011;43493;53.098;6.064;2024-02-04T11:14:53;10.47;;;3.27;;
57663;SDS011;43493;53.098;6.064;2024-02-04T11:28:18;14.20;;;3.33;;
57663;SDS011;43493;53.098;6.064;2024-02-04T11:30:46;10.07;;;3.30;;
57663;SDS011;43493;53.098;6.064;2024-02-04T11:33:13;13.00;;;3.47;;
57663;SDS011;43493;53.098;6.064;2024-02-04T11:35:43;12.37;;;3.73;;
57663;SDS011;43493;53.098;6.064;2024-02-04T11:38:09;10.53;;;3.10;;
57663;SDS011;43493;53.098;6.064;2024-02-04T11:40:39;11.27;;;2.63;;
57663;SDS011;43493;53.098;6.064;2024-02-04T11:43:11;12.60;;;3.27;;
57663;SDS011;43493;53.098;6.064;2024-02-04T11:45:38;16.97;;;7.00;;
57663;SDS011;43493;53.098;6.064;2024-02-04T11:48:08;18.07;;;10.47;;
57663;SDS011;43493;53.098;6.064;2024-02-04T11:50:37;16.93;;;6.77;;
57663;SDS011;43493;53.098;6.064;2024-02-04T11:55:36;8.40;;;3.03;;
57663;SDS011;43493;53.098;6.064;2024-02-04T11:58:07;12.63;;;3.70;;
57663;SDS011;43493;53.098;6.064;2024-02-04T12:00:34;14.83;;;2.97;;
57663;SDS011;43493;53.098;6.064;2024-02-04T12:03:01;17.57;;;5.97;;
57663;SDS011;43493;53.098;6.064;2024-02-04T12:05:28;17.47;;;6.20;;
57663;SDS011;43493;53.098;6.064;2024-02-04T12:07:57;16.80;;;3.87;;
57663;SDS011;43493;53.098;6.064;2024-02-04T12:10:23;12.77;;;3.73;;
57663;SDS011;43493;53.098;6.064;2024-02-04T12:12:52;13.47;;;2.83;;
57663;SDS011;43493;53.098;6.064;2024-02-04T12:15:18;12.83;;;2.87;;
57663;SDS011;43493;53.098;6.064;2024-02-04T12:17:43;11.57;;;2.67;;
57663;SDS011;43493;53.098;6.064;2024-02-04T12:20:09;13.77;;;3.97;;
57663;SDS011;43493;53.098;6.064;2024-02-04T12:22:35;11.77;;;2.53;;
57663;SDS011;43493;53.098;6.064;2024-02-04T12:25:02;12.20;;;2.23;;
57663;SDS011;43493;53.098;6.064;2024-02-04T12:27:28;13.33;;;2.20;;
57663;SDS011;43493;53.098;6.064;2024-02-04T12:29:54;8.60;;;1.87;;
57663;SDS011;43493;53.098;6.064;2024-02-04T12:32:20;13.90;;;2.60;;
57663;SDS011;43493;53.098;6.064;2024-02-04T12:34:47;9.80;;;2.83;;
57663;SDS011;43493;53.098;6.064;2024-02-04T12:37:13;12.77;;;3.37;;
57663;SDS011;43493;53.098;6.064;2024-02-04T12:39:39;10.23;;;2.30;;
57663;SDS011;43493;53.098;6.064;2024-02-04T12:42:04;9.47;;;3.13;;
57663;SDS011;43493;53.098;6.064;2024-02-04T12:44:31;12.20;;;2.57;;
57663;SDS011;43493;53.098;6.064;2024-02-04T12:46:57;8.00;;;2.40;;
57663;SDS011;43493;53.098;6.064;2024-02-04T12:49:23;13.10;;;2.73;;
57663;SDS011;43493;53.098;6.064;2024-02-04T12:51:49;10.70;;;3.00;;
57663;SDS011;43493;53.098;6.064;2024-02-04T12:54:17;21.80;;;9.63;;
57663;SDS011;43493;53.098;6.064;2024-02-04T12:59:11;11.63;;;2.50;;
57663;SDS011;43493;53.098;6.064;2024-02-04T13:01:51;10.43;;;3.03;;
57663;SDS011;43493;53.098;6.064;2024-02-04T13:04:18;12.20;;;3.30;;
57663;SDS011;43493;53.098;6.064;2024-02-04T13:06:44;14.37;;;5.53;;
57663;SDS011;43493;53.098;6.064;2024-02-04T13:09:09;13.47;;;2.33;;
57663;SDS011;43493;53.098;6.064;2024-02-04T13:11:36;14.53;;;2.73;;
57663;SDS011;43493;53.098;6.064;2024-02-04T13:14:02;10.30;;;2.23;;
57663;SDS011;43493;53.098;6.064;2024-02-04T13:16:27;10.53;;;2.17;;
57663;SDS011;43493;53.098;6.064;2024-02-04T13:18:55;14.73;;;3.57;;
57663;SDS011;43493;53.098;6.064;2024-02-04T13:21:21;14.70;;;2.90;;
57663;SDS011;43493;53.098;6.064;2024-02-04T13:23:47;19.13;;;3.43;;
57663;SDS011;43493;53.098;6.064;2024-02-04T13:26:15;15.30;;;4.10;;
57663;SDS011;43493;53.098;6.064;2024-02-04T13:28:41;14.10;;;5.20;;
57663;SDS011;43493;53.098;6.064;2024-02-04T13:31:08;13.13;;;2.40;;
57663;SDS011;43493;53.098;6.064;2024-02-04T13:33:33;11.83;;;2.43;;
57663;SDS011;43493;53.098;6.064;2024-02-04T13:35:59;16.40;;;2.83;;
57663;SDS011;43493;53.098;6.064;2024-02-04T13:38:25;13.33;;;2.70;;
57663;SDS011;43493;53.098;6.064;2024-02-04T13:40:51;7.90;;;1.80;;
57663;SDS011;43493;53.098;6.064;2024-02-04T13:43:18;11.23;;;2.77;;
57663;SDS011;43493;53.098;6.064;2024-02-04T13:45:43;12.80;;;2.37;;
57663;SDS011;43493;53.098;6.064;2024-02-04T13:48:09;9.93;;;1.97;;
57663;SDS011;43493;53.098;6.064;2024-02-04T13:50:35;13.30;;;2.70;;
57663;SDS011;43493;53.098;6.064;2024-02-04T13:53:02;11.90;;;3.13;;
57663;SDS011;43493;53.098;6.064;2024-02-04T13:55:28;16.37;;;2.50;;
57663;SDS011;43493;53.098;6.064;2024-02-04T13:57:54;10.67;;;3.33;;
57663;SDS011;43493;53.098;6.064;2024-02-04T14:00:19;10.20;;;2.63;;
57663;SDS011;43493;53.098;6.064;2024-02-04T14:02:45;9.73;;;2.43;;
57663;SDS011;43493;53.098;6.064;2024-02-04T14:05:11;7.97;;;2.30;;
57663;SDS011;43493;53.098;6.064;2024-02-04T14:07:37;8.30;;;2.63;;
57663;SDS011;43493;53.098;6.064;2024-02-04T14:10:04;10.13;;;2.50;;
57663;SDS011;43493;53.098;6.064;2024-02-04T14:12:29;9.53;;;2.70;;
57663;SDS011;43493;53.098;6.064;2024-02-04T14:14:56;10.40;;;2.47;;
57663;SDS011;43493;53.098;6.064;2024-02-04T14:17:22;10.00;;;2.60;;
57663;SDS011;43493;53.098;6.064;2024-02-04T14:19:48;12.27;;;2.17;;
57663;SDS011;43493;53.098;6.064;2024-02-04T14:22:16;9.37;;;2.63;;
57663;SDS011;43493;53.098;6.064;2024-02-04T14:24:46;11.00;;;2.50;;
57663;SDS011;43493;53.098;6.064;2024-02-04T14:27:12;6.80;;;2.07;;
57663;SDS011;43493;53.098;6.064;2024-02-04T14:29:38;18.63;;;9.17;;
57663;SDS011;43493;53.098;6.064;2024-02-04T14:32:04;14.23;;;6.73;;
57663;SDS011;43493;53.098;6.064;2024-02-04T14:34:30;9.63;;;3.17;;
57663;SDS011;43493;53.098;6.064;2024-02-04T14:36:56;13.77;;;3.70;;
57663;SDS011;43493;53.098;6.064;2024-02-04T14:39:21;14.57;;;3.30;;
57663;SDS011;43493;53.098;6.064;2024-02-04T14:41:47;11.03;;;3.37;;
57663;SDS011;43493;53.098;6.064;2024-02-04T14:44:13;14.13;;;4.20;;
57663;SDS011;43493;53.098;6.064;2024-02-04T14:46:39;11.97;;;3.90;;